Time;durP1;ratioP1;P1;durP2;ratioP2;P2;SDS_P1;SDS_P2;PMS_P1;PMS_P2;Temp;Humidity;BMP_temperature;BMP_pressure;BME280_temperature;BME280_humidity;BME280_pressure;Samples;Min_cycle;Max_cycle;Signal;HPM_P1;HPM_P2
2022/04/17 00:00:38;;;;;;;3.70;1.20;;;;;;;3.37;52.87;100269.06;4728791;30;20060;-81
2022/04/17 00:03:06;;;;;;;3.25;1.40;;;;;;;3.27;53.59;100267.94;4750286;30;20060;-78
2022/04/17 00:05:34;;;;;;;2.10;1.38;;;;;;;3.35;53.78;100282.72;4736134;29;20074;-81
2022/04/17 00:08:00;;;;;;;6.68;1.40;;;;;;;3.25;53.13;100259.31;4745904;30;20048;-80
2022/04/17 00:10:27;;;;;;;1.33;1.15;;;;;;;3.13;52.76;100246.13;4744654;30;20054;-81
2022/04/17 00:12:52;;;;;;;3.95;1.33;;;;;;;3.18;53.17;100259.97;4734970;30;20059;-79
2022/04/17 00:15:19;;;;;;;2.38;1.30;;;;;;;3.42;52.65;100295.81;4732278;30;20047;-82
2022/04/17 00:17:45;;;;;;;1.33;1.13;;;;;;;3.46;52.92;100294.19;4746032;30;20528;-82
2022/04/17 00:20:13;;;;;;;2.53;1.20;;;;;;;3.48;52.40;100305.41;4733499;30;20047;-82
2022/04/17 00:22:39;;;;;;;2.92;1.42;;;;;;;3.52;52.51;100304.66;4748219;30;20052;-81
2022/04/17 00:25:07;;;;;;;1.45;1.02;;;;;;;3.60;52.15;100308.31;4718871;30;20520;-79
2022/04/17 00:27:34;;;;;;;2.30;1.23;;;;;;;3.42;52.08;100289.81;4736102;30;20814;-82
2022/04/17 00:30:00;;;;;;;1.65;1.33;;;;;;;3.60;52.19;100316.06;4746397;30;20056;-81
2022/04/17 00:32:27;;;;;;;1.90;1.15;;;;;;;3.62;52.02;100310.94;4747408;30;20791;-80
2022/04/17 00:34:53;;;;;;;2.95;1.30;;;;;;;3.25;51.90;100254.16;4734582;30;20471;-78
2022/04/17 00:37:18;;;;;;;1.52;1.10;;;;;;;3.55;51.52;100309.91;4732583;30;20048;-81
2022/04/17 00:39:45;;;;;;;2.05;1.30;;;;;;;3.51;51.18;100313.22;4733458;30;20129;-79
2022/04/17 00:42:10;;;;;;;2.08;1.10;;;;;;;3.47;51.45;100312.25;4727391;30;21360;-83
2022/04/17 00:44:37;;;;;;;2.65;1.08;;;;;;;3.42;51.59;100312.97;4750328;30;20055;-81
2022/04/17 00:47:04;;;;;;;2.50;1.20;;;;;;;3.22;51.24;100294.38;4748466;30;20052;-80
2022/04/17 00:49:34;;;;;;;1.40;0.98;;;;;;;3.13;51.39;100275.25;4748835;30;20123;-82
2022/04/17 00:52:00;;;;;;;1.10;0.90;;;;;;;3.23;51.37;100301.25;4746082;30;20716;-79
2022/04/17 00:54:28;;;;;;;1.92;1.00;;;;;;;3.26;50.94;100302.22;4738626;30;20036;-78
2022/04/17 00:56:56;;;;;;;2.30;1.08;;;;;;;3.23;50.77;100311.56;4740265;30;20116;-81
2022/04/17 00:59:23;;;;;;;2.40;1.00;;;;;;;3.23;50.89;100311.56;4735631;30;20097;-79
2022/04/17 01:01:49;;;;;;;1.10;0.85;;;;;;;3.05;51.24;100288.72;4738950;30;20087;-81
2022/04/17 01:04:16;;;;;;;1.92;1.27;;;;;;;3.17;51.13;100301.97;4738716;30;20079;-81
2022/04/17 01:06:42;;;;;;;1.00;0.90;;;;;;;3.16;51.05;100290.78;4736619;30;20143;-80
2022/04/17 01:09:08;;;;;;;2.22;1.08;;;;;;;3.32;51.06;100309.22;4747268;30;20087;-80
2022/04/17 01:11:40;;;;;;;1.42;1.25;;;;;;;3.28;50.76;100310.00;4727686;30;20075;-78
2022/04/17 01:14:08;;;;;;;1.60;1.20;;;;;;;3.19;50.24;100302.88;4734903;30;20036;-82
2022/04/17 01:16:36;;;;;;;1.67;0.80;;;;;;;3.15;51.11;100296.75;4729522;30;20096;-80
2022/04/17 01:19:11;;;;;;;1.70;0.90;;;;;;;3.17;50.61;100297.69;4731890;30;20518;-80
2022/04/17 01:21:42;;;;;;;2.05;0.73;;;;;;;3.26;50.78;100297.06;4735044;30;20070;-80
2022/04/17 01:26:58;;;;;;;1.75;0.93;;;;;;;3.29;50.56;100312.59;4736043;30;20044;-83
2022/04/17 01:29:26;;;;;;;2.38;1.20;;;;;;;3.17;50.93;100314.81;4736411;30;20520;-81
2022/04/17 01:31:54;;;;;;;1.88;0.88;;;;;;;2.99;50.21;100286.84;4729766;30;20502;-81
2022/04/17 01:34:21;;;;;;;2.15;1.00;;;;;;;3.08;50.60;100311.97;4738069;30;20040;-80
2022/04/17 01:36:50;;;;;;;0.77;0.60;;;;;;;3.04;50.67;100302.41;4739479;30;20131;-80
2022/04/17 01:39:17;;;;;;;1.38;0.90;;;;;;;3.10;50.42;100311.19;4735566;30;20044;-81
2022/04/17 01:41:46;;;;;;;1.27;0.90;;;;;;;3.08;50.21;100311.97;4742183;30;20075;-81
2022/04/17 01:44:12;;;;;;;2.40;1.08;;;;;;;3.13;50.51;100325.84;4768534;29;20048;-80
2022/04/17 01:46:38;;;;;;;3.90;1.10;;;;;;;3.00;50.72;100304.88;4753352;30;20104;-79
2022/04/17 01:49:05;;;;;;;3.38;1.55;;;;;;;3.06;50.13;100295.63;4731168;30;20472;-82
2022/04/17 01:51:39;;;;;;;1.73;0.95;;;;;;;3.03;50.13;100298.97;4729276;30;20044;-79
2022/04/17 01:54:07;;;;;;;2.97;0.88;;;;;;;3.11;50.09;100317.22;4732974;30;20139;-79
2022/04/17 01:56:34;;;;;;;2.65;1.10;;;;;;;3.15;49.85;100322.47;4729746;30;20139;-81
2022/04/17 01:59:01;;;;;;;1.80;1.10;;;;;;;2.99;50.24;100316.00;4731402;30;20048;-80
2022/04/17 02:01:27;;;;;;;3.33;1.15;;;;;;;2.97;49.73;100324.50;4745873;30;20044;-77
2022/04/17 02:03:53;;;;;;;1.63;1.10;;;;;;;2.95;50.29;100309.03;4739969;30;20078;-79
2022/04/17 02:06:19;;;;;;;2.25;0.90;;;;;;;3.04;50.19;100317.84;4753834;30;20101;-78
2022/04/17 02:08:45;;;;;;;1.42;0.80;;;;;;;3.07;49.94;100305.97;4741342;30;20058;-81
2022/04/17 02:11:12;;;;;;;1.15;0.80;;;;;;;2.96;50.31;100292.78;4755618;30;20053;-79
2022/04/17 02:13:39;;;;;;;2.13;1.00;;;;;;;2.94;49.52;100299.59;4746875;30;20048;-79
2022/04/17 02:16:06;;;;;;;2.65;0.93;;;;;;;2.93;49.72;100287.56;4747063;30;20054;-79
2022/04/17 02:18:33;;;;;;;1.58;1.00;;;;;;;2.73;49.38;100273.22;4743924;30;20055;-80
2022/04/17 02:20:59;;;;;;;1.00;0.88;;;;;;;3.03;49.61;100322.13;4749123;30;20197;-79
2022/04/17 02:23:25;;;;;;;2.85;0.90;;;;;;;3.03;49.72;100318.66;4759143;30;20044;-82
2022/04/17 02:25:51;;;;;;;3.30;0.80;;;;;;;2.88;50.12;100293.34;4742069;30;20054;-79
2022/04/17 02:28:17;;;;;;;2.58;0.80;;;;;;;2.87;49.24;100302.78;4745345;30;20047;-80
2022/04/17 02:30:43;;;;;;;4.47;0.80;;;;;;;2.79;49.28;100292.28;4757926;30;20040;-80
2022/04/17 02:33:10;;;;;;;1.20;0.70;;;;;;;2.83;49.18;100294.13;4769980;30;20130;-79
2022/04/17 02:35:37;;;;;;;1.67;1.00;;;;;;;2.89;49.14;100310.53;4767932;30;20047;-81
2022/04/17 02:38:04;;;;;;;2.88;0.98;;;;;;;2.82;48.58;100319.75;4767205;30;20056;-79
2022/04/17 02:40:31;;;;;;;6.20;1.17;;;;;;;2.82;49.63;100315.50;4760317;30;20040;-81
2022/04/17 02:42:59;;;;;;;1.40;1.00;;;;;;;2.89;49.59;100323.38;4744866;30;20058;-81
2022/04/17 02:45:27;;;;;;;2.40;0.90;;;;;;;2.78;49.18;100299.91;4746672;30;20047;-81
2022/04/17 02:47:53;;;;;;;1.25;0.85;;;;;;;2.82;49.45;100317.19;4741845;30;20112;-79
2022/04/17 02:50:20;;;;;;;3.53;1.33;;;;;;;2.86;49.52;100319.03;4732510;30;20631;-81
2022/04/17 02:52:46;;;;;;;1.10;0.80;;;;;;;2.90;49.48;100333.72;4721204;30;20150;-79
2022/04/17 02:55:12;;;;;;;1.02;0.80;;;;;;;2.87;49.51;100331.06;4734540;30;20048;-79
2022/04/17 02:57:39;;;;;;;2.85;1.00;;;;;;;2.69;49.06;100297.94;4730708;30;20044;-78
2022/04/17 03:00:07;;;;;;;3.40;1.00;;;;;;;2.77;49.11;100311.03;4748154;30;20138;-80
2022/04/17 03:05:37;;;;;;;1.77;1.00;;;;;;;2.68;49.15;100321.88;4758945;30;20048;-79
2022/04/17 03:08:12;;;;;;;2.40;0.80;;;;;;;2.82;49.21;100351.50;4733476;30;20055;-80
2022/04/17 03:10:40;;;;;;;2.05;0.82;;;;;;;2.86;49.32;100347.31;4749752;30;20056;-80
2022/04/17 03:13:07;;;;;;;2.65;1.00;;;;;;;2.87;49.75;100359.34;4761337;30;20064;-79
2022/04/17 03:15:34;;;;;;;1.35;0.95;;;;;;;2.69;49.06;100324.53;4735385;30;20060;-80
2022/04/17 03:18:00;;;;;;;1.38;0.80;;;;;;;2.82;49.57;100350.59;4737624;30;20048;-80
2022/04/17 03:20:27;;;;;;;1.75;1.00;;;;;;;2.65;49.35;100316.69;4765168;30;20103;-80
2022/04/17 03:22:53;;;;;;;0.82;0.77;;;;;;;2.61;48.76;100318.25;4767505;29;20111;-80
2022/04/17 03:25:20;;;;;;;1.85;1.00;;;;;;;2.80;49.37;100352.25;4754179;30;20103;-82
2022/04/17 03:27:47;;;;;;;3.60;1.15;;;;;;;2.86;49.26;100366.19;4728214;30;20060;-79
2022/04/17 03:30:16;;;;;;;1.75;1.25;;;;;;;2.89;49.12;100360.25;4760023;30;20047;-79
2022/04/17 03:32:47;;;;;;;2.60;1.10;;;;;;;2.78;49.21;100354.78;4747315;30;20424;-81
2022/04/17 03:35:14;;;;;;;2.08;1.10;;;;;;;2.93;49.46;100363.78;4741629;30;20050;-82
2022/04/17 03:37:44;;;;;;;1.63;0.98;;;;;;;2.88;49.58;100347.34;4765189;30;20115;-78
2022/04/17 03:40:12;;;;;;;1.83;1.00;;;;;;;2.94;49.46;100352.69;4753981;30;20136;-80
2022/04/17 03:42:39;;;;;;;2.25;1.08;;;;;;;2.88;49.74;100360.19;4746269;30;20076;-83
2022/04/17 03:45:07;;;;;;;0.93;0.80;;;;;;;2.70;50.34;100326.28;4754975;30;20095;-80
2022/04/17 03:47:34;;;;;;;3.15;1.02;;;;;;;2.91;50.03;100365.44;4745503;30;20052;-77
2022/04/17 03:50:03;;;;;;;1.70;0.90;;;;;;;2.73;50.17;100340.03;4741909;30;20052;-79
2022/04/17 03:52:41;;;;;;;1.10;0.75;;;;;;;2.82;49.55;100364.34;4746456;30;20067;-80
2022/04/17 03:55:08;;;;;;;2.60;1.10;;;;;;;2.81;50.41;100351.44;4755147;30;20115;-78
2022/04/17 03:57:34;;;;;;;5.63;1.30;;;;;;;2.92;50.98;100367.19;4756622;30;20048;-81
2022/04/17 04:00:01;;;;;;;1.08;0.80;;;;;;;2.85;50.65;100366.13;4758050;30;20074;-79
2022/04/17 04:02:38;;;;;;;1.77;0.95;;;;;;;3.00;50.11;100374.31;4756937;30;20058;-78
2022/04/17 04:05:08;;;;;;;3.80;1.17;;;;;;;2.97;51.05;100369.09;4748868;30;20048;-79
2022/04/17 04:07:34;;;;;;;2.38;1.10;;;;;;;3.10;50.80;100375.47;4766511;30;20060;-80
2022/04/17 04:10:02;;;;;;;1.17;0.90;;;;;;;3.00;51.32;100361.47;4746304;30;20044;-80
2022/04/17 04:12:29;;;;;;;2.10;1.05;;;;;;;2.87;50.17;100359.34;4762884;30;20068;-78
2022/04/17 04:14:55;;;;;;;1.13;1.00;;;;;;;3.01;51.53;100381.19;4746328;30;20147;-81
2022/04/17 04:17:22;;;;;;;3.60;1.08;;;;;;;3.21;51.99;100393.78;4738153;30;20557;-77
2022/04/17 04:19:48;;;;;;;1.98;1.00;;;;;;;3.31;51.94;100387.25;4767152;30;20064;-82
2022/04/17 04:22:14;;;;;;;1.02;0.93;;;;;;;3.39;52.20;100385.78;4754452;30;20039;-80
2022/04/17 04:24:40;;;;;;;1.95;1.00;;;;;;;3.33;52.17;100364.13;4760639;30;20476;-83
2022/04/17 04:29:50;;;;;;;1.65;0.90;;;;;;;3.51;52.08;100408.41;4735544;30;20040;-83
2022/04/17 04:32:22;;;;;;;1.13;1.02;;;;;;;3.72;52.23;100403.03;4738477;30;20069;-80
2022/04/17 04:34:48;;;;;;;2.63;1.00;;;;;;;3.81;53.09;100379.25;4737267;30;20040;-79
2022/04/17 04:37:15;;;;;;;1.48;0.93;;;;;;;4.05;52.06;100409.09;4753633;30;20043;-79
2022/04/17 04:39:41;;;;;;;1.23;1.00;;;;;;;4.09;52.75;100395.44;4733160;30;20052;-80
2022/04/17 04:42:07;;;;;;;1.55;1.00;;;;;;;4.34;52.25;100406.41;4754530;30;20051;-79
2022/04/17 04:44:33;;;;;;;1.45;1.13;;;;;;;4.36;51.19;100391.84;4753058;30;20048;-79
2022/04/17 04:46:59;;;;;;;4.30;1.30;;;;;;;4.43;52.85;100410.91;4738381;30;20047;-81
2022/04/17 04:49:31;;;;;;;0.80;0.70;;;;;;;4.27;52.51;100395.06;4755278;30;20579;-84
2022/04/17 04:52:02;;;;;;;1.50;0.98;;;;;;;4.28;52.33;100408.84;4734567;30;20095;-82
2022/04/17 04:54:30;;;;;;;1.88;1.40;;;;;;;4.25;52.86;100388.16;4752186;30;20041;-82
2022/04/17 04:56:58;;;;;;;2.15;1.10;;;;;;;4.32;51.61;100408.06;4741748;30;20054;-78
2022/04/17 04:59:24;;;;;;;2.47;1.08;;;;;;;4.28;52.84;100395.97;4746545;30;20044;-80
2022/04/17 05:01:51;;;;;;;1.45;1.33;;;;;;;4.28;53.09;100411.41;4758729;30;20132;-81
2022/04/17 05:04:18;;;;;;;1.88;1.13;;;;;;;4.16;52.78;100374.19;4745453;30;20521;-81
2022/04/17 05:06:45;;;;;;;3.08;1.00;;;;;;;4.27;53.18;100369.31;4735437;30;20044;-82
2022/04/17 05:09:11;;;;;;;1.42;1.15;;;;;;;4.41;52.04;100400.59;4741304;30;20087;-79
2022/04/17 05:11:38;;;;;;;2.30;1.35;;;;;;;4.37;52.92;100397.06;4733719;30;20120;-81
2022/04/17 05:14:11;;;;;;;2.08;1.10;;;;;;;4.22;51.98;100361.47;4735454;30;20048;-80
2022/04/17 05:16:38;;;;;;;2.80;1.10;;;;;;;4.46;52.29;100392.97;4739473;30;20101;-80
2022/04/17 05:21:53;;;;;;;1.83;1.10;;;;;;;4.51;52.37;100393.97;4753202;30;20513;-81
2022/04/17 05:24:19;;;;;;;2.20;1.05;;;;;;;4.29;52.66;100361.63;4737950;30;20130;-79
2022/04/17 05:26:45;;;;;;;1.33;1.02;;;;;;;4.39;52.66;100393.66;4733541;30;20159;-80
2022/04/17 05:29:11;;;;;;;4.10;1.10;;;;;;;4.42;52.11;100397.19;4733031;30;20506;-81
2022/04/17 05:31:37;;;;;;;1.73;1.10;;;;;;;4.18;52.30;100372.50;4736045;30;20098;-82
2022/04/17 05:34:03;;;;;;;3.33;1.50;;;;;;;4.25;52.39;100401.03;4735749;30;20059;-79
2022/04/17 05:36:29;;;;;;;1.85;1.00;;;;;;;4.16;52.45;100394.78;4737173;30;20509;-79
2022/04/17 05:38:56;;;;;;;1.38;0.98;;;;;;;4.14;51.85;100403.31;4753116;30;20050;-81
2022/04/17 05:41:24;;;;;;;1.77;1.10;;;;;;;3.90;52.31;100405.25;4720299;30;20154;-80
2022/04/17 05:43:51;;;;;;;2.55;1.17;;;;;;;3.89;51.86;100411.22;4717728;30;20044;-80
2022/04/17 05:46:17;;;;;;;2.22;0.90;;;;;;;3.98;52.42;100418.31;4737444;30;20068;-80
2022/04/17 05:48:45;;;;;;;1.20;1.10;;;;;;;3.09;52.06;100281.13;4737070;30;20081;-80
2022/04/17 05:51:11;;;;;;;2.35;1.20;;;;;;;3.59;51.11;100370.94;4754640;30;20044;-81
2022/04/17 05:53:37;;;;;;;1.63;1.10;;;;;;;3.91;52.27;100437.88;4741027;30;20572;-79
2022/04/17 05:56:05;;;;;;;1.67;0.98;;;;;;;3.88;51.67;100440.38;4747955;30;20101;-78
2022/04/17 05:58:31;;;;;;;1.77;1.20;;;;;;;3.70;52.21;100412.41;4761268;30;20040;-82
2022/04/17 06:00:57;;;;;;;1.05;0.95;;;;;;;3.79;52.11;100442.69;4758849;30;20040;-77
2022/04/17 06:03:23;;;;;;;1.80;1.17;;;;;;;3.72;51.54;100444.22;4735288;30;20114;-81
2022/04/17 06:05:49;;;;;;;2.40;1.13;;;;;;;3.46;52.33;100407.41;4738979;30;20052;-80
2022/04/17 06:08:15;;;;;;;2.65;1.20;;;;;;;3.82;51.70;100445.38;4731052;30;20043;-82
2022/04/17 06:10:41;;;;;;;1.52;1.13;;;;;;;3.59;51.97;100398.34;4736689;30;20058;-79
2022/04/17 06:13:07;;;;;;;2.17;1.27;;;;;;;3.85;51.38;100450.63;4741128;30;20100;-81
2022/04/17 06:15:34;;;;;;;1.67;1.00;;;;;;;3.85;52.01;100450.63;4720759;30;20056;-83
2022/04/17 06:18:04;;;;;;;2.75;1.48;;;;;;;3.78;51.80;100430.66;4721767;30;20390;-82
2022/04/17 06:20:31;;;;;;;2.80;1.20;;;;;;;3.94;51.82;100451.69;4735957;30;20032;-83
2022/04/17 06:22:57;;;;;;;2.42;1.20;;;;;;;3.84;51.87;100436.00;4734794;30;20135;-81
2022/04/17 06:25:23;;;;;;;1.38;1.15;;;;;;;4.01;51.46;100459.63;4730348;30;20045;-81
2022/04/17 06:27:51;;;;;;;2.22;1.50;;;;;;;3.81;51.33;100423.03;4751302;30;20064;-79
2022/04/17 06:30:19;;;;;;;3.17;1.23;;;;;;;3.75;51.12;100412.53;4741562;30;20551;-81
2022/04/17 06:32:52;;;;;;;1.75;1.00;;;;;;;4.11;51.47;100455.59;4738971;30;20052;-80
2022/04/17 06:35:19;;;;;;;4.43;1.70;;;;;;;3.83;51.20;100389.59;4760282;30;20044;-80
2022/04/17 06:37:56;;;;;;;2.35;1.23;;;;;;;4.24;50.76;100450.81;4758691;30;20059;-82
2022/04/17 06:40:24;;;;;;;2.13;1.23;;;;;;;4.29;51.18;100452.66;4749966;30;20055;-77
2022/04/17 06:42:53;;;;;;;1.48;1.10;;;;;;;4.32;50.33;100465.66;4752992;30;20044;-81
2022/04/17 06:45:25;;;;;;;1.60;1.17;;;;;;;4.36;50.91;100459.75;4753964;30;20048;-81
2022/04/17 06:47:54;;;;;;;2.40;1.30;;;;;;;4.30;50.02;100428.66;4746925;30;20131;-80
2022/04/17 06:50:22;;;;;;;1.90;1.02;;;;;;;3.46;50.65;100315.66;4728277;30;21543;-80
2022/04/17 06:52:49;;;;;;;2.55;1.52;;;;;;;4.12;50.19;100400.69;4740227;30;20090;-81
2022/04/17 06:55:18;;;;;;;4.03;1.73;;;;;;;4.00;50.10;100397.78;4743966;30;20041;-78
2022/04/17 06:57:48;;;;;;;1.95;1.00;;;;;;;3.26;49.81;100257.63;4742982;30;20056;-81
2022/04/17 07:00:17;;;;;;;2.10;1.17;;;;;;;4.50;49.96;100452.38;4726774;30;20036;-80
2022/04/17 07:02:44;;;;;;;4.53;1.10;;;;;;;4.59;49.94;100451.75;4740499;30;20056;-77
2022/04/17 07:05:28;;;;;;;2.92;1.25;;;;;;;4.76;49.51;100454.75;4748841;30;20055;-83
2022/04/17 07:08:01;;;;;;;1.77;1.05;;;;;;;4.82;49.03;100436.00;4761489;30;20054;-81
2022/04/17 07:10:34;;;;;;;3.30;1.00;;;;;;;4.21;48.84;100333.97;4749650;30;20067;-82
2022/04/17 07:13:01;;;;;;;2.40;1.00;;;;;;;4.88;48.65;100446.44;4733324;30;20047;-81
2022/04/17 07:15:27;;;;;;;2.78;1.00;;;;;;;4.89;48.30;100424.97;4746798;30;20054;-80
2022/04/17 07:17:54;;;;;;;2.05;0.80;;;;;;;4.57;48.48;100364.88;4744095;30;20076;-81
2022/04/17 07:20:21;;;;;;;1.55;0.95;;;;;;;5.13;48.36;100452.19;4740039;30;20056;-82
2022/04/17 07:22:51;;;;;;;1.88;1.00;;;;;;;5.15;48.15;100444.50;4743133;30;20132;-80
2022/04/17 07:25:20;;;;;;;3.63;0.80;;;;;;;4.94;47.55;100431.13;4737296;30;20549;-83
2022/04/17 07:27:50;;;;;;;1.92;0.95;;;;;;;5.14;47.21;100479.75;4742274;30;20055;-81
2022/04/17 07:31:03;;;;;;;1.88;1.05;;;;;;;5.21;47.27;100484.22;4757795;30;20040;-82
2022/04/17 07:33:39;;;;;;;1.70;0.77;;;;;;;4.86;47.49;100444.66;4739911;30;20046;-80
2022/04/17 07:36:09;;;;;;;2.03;1.00;;;;;;;4.19;46.77;100307.28;4731919;30;20044;-81
2022/04/17 07:38:35;;;;;;;2.45;1.30;;;;;;;5.41;46.36;100505.31;4762755;30;20102;-79
2022/04/17 07:41:02;;;;;;;1.33;1.10;;;;;;;5.15;46.60;100419.56;4742156;30;20048;-81
2022/04/17 07:43:32;;;;;;;2.47;1.48;;;;;;;4.99;46.85;100402.84;4750436;30;20067;-78
2022/04/17 07:45:58;;;;;;;4.13;1.02;;;;;;;5.64;46.44;100507.56;4764173;30;20043;-79
2022/04/17 07:48:28;;;;;;;1.17;0.98;;;;;;;5.65;46.56;100490.38;4744807;30;20048;-78
2022/04/17 07:50:58;;;;;;;2.65;0.90;;;;;;;5.66;46.21;100480.06;4754966;30;20059;-80
2022/04/17 07:53:48;;;;;;;1.95;0.80;;;;;;;5.66;45.31;100489.53;4731304;30;20048;-81
2022/04/17 07:56:14;;;;;;;3.10;1.08;;;;;;;4.92;46.41;100359.72;4759114;30;20146;-84
2022/04/17 07:58:54;;;;;;;1.65;1.00;;;;;;;5.42;45.90;100449.44;4737537;30;20052;-82
2022/04/17 08:01:27;;;;;;;1.52;1.05;;;;;;;5.52;45.79;100458.25;4764835;30;20036;-80
2022/04/17 08:03:53;;;;;;;2.47;1.10;;;;;;;5.95;45.86;100500.50;4742692;30;20116;-81
2022/04/17 08:06:22;;;;;;;1.63;1.00;;;;;;;5.97;44.75;100498.81;4746052;30;20100;-79
2022/04/17 08:08:52;;;;;;;2.67;1.00;;;;;;;6.02;45.17;100504.09;4762857;30;20048;-82
2022/04/17 08:11:26;;;;;;;3.85;1.00;;;;;;;6.12;44.89;100518.09;4738394;30;20068;-80
2022/04/17 08:13:59;;;;;;;2.05;1.08;;;;;;;6.13;44.40;100507.81;4738573;30;20194;-83
2022/04/17 08:16:31;;;;;;;3.97;1.20;;;;;;;6.33;44.89;100490.09;4769841;29;20115;-80
2022/04/17 08:18:58;;;;;;;;;;;;;;;6.52;44.91;100502.50;4765269;30;20087;-79
2022/04/17 08:21:34;;;;;;;1.42;1.30;;;;;;;5.41;43.79;100316.03;4738200;30;19914;-81
2022/04/17 08:24:05;;;;;;;4.53;0.85;;;;;;;6.67;44.17;100504.53;4743832;30;20080;-78
2022/04/17 08:26:33;;;;;;;4.32;1.08;;;;;;;6.61;43.74;100480.28;4731172;30;20044;-80
2022/04/17 08:29:00;;;;;;;1.48;1.10;;;;;;;6.50;43.75;100468.00;4741284;30;20404;-79
2022/04/17 08:31:26;;;;;;;1.38;1.08;;;;;;;6.72;43.51;100482.19;4757611;30;20048;-79
2022/04/17 08:33:53;;;;;;;3.65;1.10;;;;;;;6.70;43.16;100463.19;4744448;30;20044;-79
2022/04/17 08:36:19;;;;;;;3.78;1.42;;;;;;;6.91;43.31;100476.50;4728928;30;20083;-79
2022/04/17 08:38:46;;;;;;;3.47;1.20;;;;;;;6.82;42.96;100426.31;4751914;30;20127;-78
2022/04/17 08:41:15;;;;;;;1.83;1.38;;;;;;;7.35;42.49;100488.41;4749891;30;20115;-78
2022/04/17 08:43:45;;;;;;;3.30;1.33;;;;;;;7.51;42.27;100480.84;4745763;30;20055;-76
2022/04/17 08:46:21;;;;;;;3.92;1.10;;;;;;;7.74;42.43;100488.06;4735788;30;20051;-79
2022/04/17 08:48:49;;;;;;;3.13;1.20;;;;;;;7.56;41.92;100431.72;4745258;30;20144;-78
2022/04/17 08:51:15;;;;;;;4.20;1.25;;;;;;;7.86;41.88;100474.41;4754502;30;20044;-77
2022/04/17 08:53:59;;;;;;;2.28;1.10;;;;;;;7.63;42.18;100415.41;4753126;30;20075;-78
2022/04/17 08:56:28;;;;;;;4.55;1.77;;;;;;;7.84;41.40;100402.72;4756674;30;20062;-82
2022/04/17 09:02:16;;;;;;;1.83;0.90;;;;;;;7.44;40.13;100360.78;4724304;30;20055;-78
2022/04/17 09:04:47;;;;;;;2.20;1.13;;;;;;;8.23;40.44;100483.53;4755889;30;20056;-80
2022/04/17 09:08:11;;;;;;;1.65;1.10;;;;;;;8.23;40.32;100485.25;4753660;30;21303;-82
2022/04/17 09:11:31;;;;;;;4.10;1.40;;;;;;;7.98;40.14;100488.41;4733052;30;20079;-79
2022/04/17 09:14:34;;;;;;;3.53;1.02;;;;;;;7.81;40.41;100515.81;4759169;30;20087;-80
2022/04/17 09:17:25;;;;;;;1.88;0.95;;;;;;;7.62;39.75;100489.66;4738897;30;20059;-78
2022/04/17 09:20:26;;;;;;;2.47;0.88;;;;;;;7.38;39.46;100462.56;4752964;30;20068;-80
2022/04/17 09:24:09;;;;;;;1.92;0.95;;;;;;;7.83;39.30;100496.00;4727818;30;20151;-81
2022/04/17 09:27:24;;;;;;;1.45;1.00;;;;;;;8.05;39.78;100511.81;4742415;30;20213;-80
2022/04/17 09:29:58;;;;;;;1.65;1.00;;;;;;;7.49;39.16;100410.06;4721521;30;20052;-83
2022/04/17 09:32:39;;;;;;;1.30;1.10;;;;;;;8.20;39.49;100518.91;4742419;30;20574;-82
2022/04/17 09:35:39;;;;;;;2.70;1.20;;;;;;;7.22;38.69;100337.19;4726047;30;20513;-79
2022/04/17 09:38:32;;;;;;;2.08;0.90;;;;;;;7.84;38.19;100407.88;4751590;30;20055;-79
2022/04/17 09:41:14;;;;;;;3.20;1.00;;;;;;;8.37;38.08;100491.47;4729086;30;20068;-80
2022/04/17 09:44:02;;;;;;;;;;;;;;;;;;;;;
2022/04/17 09:47:00;;;;;;;2.15;1.05;;;;;;;7.61;37.57;100381.72;4756027;30;20050;-81
2022/04/17 09:50:06;;;;;;;2.47;1.20;;;;;;;7.90;36.78;100468.44;4744013;30;20079;-79
2022/04/17 09:52:48;;;;;;;1.55;1.00;;;;;;;7.19;37.12;100318.16;4730793;30;20110;-78
2022/04/17 09:55:26;;;;;;;2.38;1.13;;;;;;;8.09;37.22;100456.56;4749850;30;20167;-82
2022/04/17 09:57:57;;;;;;;1.60;1.00;;;;;;;8.44;37.04;100495.00;4746801;30;20053;-82
2022/04/17 10:01:19;;;;;;;1.73;0.97;;;;;;;8.57;36.82;100519.38;4731668;30;20052;-82
2022/04/17 10:03:56;;;;;;;1.52;0.98;;;;;;;8.24;36.64;100448.09;4734951;30;20057;-83
2022/04/17 10:06:23;;;;;;;1.42;1.00;;;;;;;8.33;36.40;100479.31;4728979;30;20048;-81
2022/04/17 10:09:08;;;;;;;4.55;1.15;;;;;;;7.40;36.91;100325.31;4743563;30;20176;-82
2022/04/17 10:11:46;;;;;;;1.80;1.30;;;;;;;8.20;37.04;100439.41;4719230;30;20079;-79
2022/04/17 10:14:14;;;;;;;3.15;1.20;;;;;;;8.25;36.66;100455.88;4738067;30;20068;-80
2022/04/17 10:16:46;;;;;;;3.03;1.10;;;;;;;8.43;36.61;100485.47;4744246;30;20081;-79
2022/04/17 10:20:16;;;;;;;2.72;0.90;;;;;;;8.68;36.19;100515.19;4738490;30;20058;-83
2022/04/17 10:22:43;;;;;;;1.88;1.10;;;;;;;8.43;36.65;100470.78;4757275;30;20087;-79
2022/04/17 10:25:10;;;;;;;2.80;1.30;;;;;;;8.73;36.06;100521.25;4741372;30;21190;-77
2022/04/17 10:27:39;;;;;;;4.25;1.30;;;;;;;8.66;36.04;100522.06;4754760;30;20047;-80
2022/04/17 10:30:21;;;;;;;4.82;1.40;;;;;;;8.72;36.27;100522.13;4734122;30;20100;-79
2022/04/17 10:32:47;;;;;;;1.13;1.00;;;;;;;8.73;36.28;100517.81;4747230;30;20048;-79
2022/04/17 10:35:43;;;;;;;1.63;0.98;;;;;;;8.60;36.22;100524.59;4731118;30;20409;-80
2022/04/17 10:38:39;;;;;;;3.58;1.48;;;;;;;8.59;36.29;100520.25;4747858;30;20113;-87
2022/04/17 10:41:13;;;;;;;2.33;1.10;;;;;;;8.25;36.37;100460.22;4744111;30;20047;-83
2022/04/17 10:43:46;;;;;;;1.95;1.35;;;;;;;8.17;35.43;100441.09;4731262;30;20051;-83
2022/04/17 10:46:16;;;;;;;4.22;1.23;;;;;;;8.14;35.93;100454.91;4734433;30;20052;-82
2022/04/17 10:49:05;;;;;;;2.63;0.90;;;;;;;7.82;36.07;100407.03;4752427;30;20102;-83
2022/04/17 10:51:57;;;;;;;1.75;1.05;;;;;;;8.41;35.92;100536.44;4755563;30;20040;-80
2022/04/17 10:54:49;;;;;;;2.42;1.20;;;;;;;8.26;35.63;100496.53;4743574;30;20044;-81
2022/04/17 10:57:31;;;;;;;2.17;1.30;;;;;;;8.46;36.00;100502.81;4745263;30;20059;-83
2022/04/17 11:00:33;;;;;;;1.92;1.17;;;;;;;8.78;35.60;100512.66;4724306;30;20043;-82
2022/04/17 11:03:11;;;;;;;1.92;1.10;;;;;;;8.94;35.30;100519.72;4740085;30;20513;-82
2022/04/17 11:08:27;;;;;;;1.60;1.00;;;;;;;9.33;35.05;100510.56;4752377;30;20647;-81
2022/04/17 11:11:06;;;;;;;2.28;1.10;;;;;;;9.24;35.04;100481.06;4743159;30;20064;-84
2022/04/17 11:14:16;;;;;;;1.77;1.02;;;;;;;8.73;34.84;100399.31;4758421;30;20127;-82
2022/04/17 11:17:22;;;;;;;2.38;1.20;;;;;;;9.47;34.85;100487.28;4739367;30;20516;-81
2022/04/17 11:24:15;;;;;;;4.28;1.08;;;;;;;9.02;34.12;100393.47;4684557;30;20066;-83
2022/04/17 11:27:02;;;;;;;4.18;1.20;;;;;;;9.79;34.38;100501.34;4687895;30;20045;-80
2022/04/17 11:30:10;;;;;;;3.65;1.17;;;;;;;9.78;33.92;100505.66;4724862;30;20056;-82
2022/04/17 11:32:39;;;;;;;3.00;1.30;;;;;;;9.85;34.15;100501.34;4733863;30;20048;-82
2022/04/17 11:35:43;;;;;;;4.32;1.65;;;;;;;9.90;34.20;100504.84;4747202;30;20070;-84
2022/04/17 11:38:51;;;;;;;4.45;1.20;;;;;;;9.68;33.88;100500.38;4717990;30;20056;-86
2022/04/17 11:41:32;;;;;;;1.77;1.13;;;;;;;8.44;33.29;100329.88;4746851;30;20069;-83
2022/04/17 11:44:06;;;;;;;1.10;1.00;;;;;;;8.51;33.90;100312.66;4756873;30;20064;-84
2022/04/17 11:56:09;;;;;;;1.75;1.20;;;;;;;9.22;33.85;100408.31;4821012;24;20039;-84
2022/04/17 11:58:44;;;;;;;2.60;1.20;;;;;;;9.40;33.58;100454.31;4801331;29;20475;-86
2022/04/17 12:01:26;;;;;;;2.35;1.00;;;;;;;8.73;33.79;100349.16;4791897;29;20070;-86
2022/04/17 12:04:09;;;;;;;1.95;1.25;;;;;;;8.62;33.99;100315.34;4764280;30;20047;-84
2022/04/17 12:06:36;;;;;;;2.30;1.10;;;;;;;9.12;33.74;100393.56;4785777;29;20046;-84
2022/04/17 12:09:10;;;;;;;1.75;0.90;;;;;;;9.60;33.89;100501.19;4811970;29;20080;-83
2022/04/17 12:11:41;;;;;;;3.90;1.08;;;;;;;9.09;33.95;100432.47;4786939;30;20043;-82
2022/04/17 12:24:50;;;;;;;2.05;1.52;;;;;;;8.91;34.37;100417.63;5618267;24;20154;-81
2022/04/17 12:27:19;;;;;;;7.20;1.88;;;;;;;9.31;33.91;100483.72;4756589;30;20055;-81
2022/04/17 12:29:52;;;;;;;2.20;1.50;;;;;;;9.33;33.89;100470.72;4775197;30;20059;-83
2022/04/17 12:32:24;;;;;;;3.15;1.40;;;;;;;8.99;33.90;100397.78;4774729;30;20111;-81
2022/04/17 12:39:04;;;;;;;4.95;1.90;;;;;;;8.34;34.06;100322.88;4777055;30;20054;-82
2022/04/17 12:41:43;;;;;;;9.77;2.40;;;;;;;9.09;33.63;100435.06;4760797;30;20040;-81
2022/04/17 12:44:12;;;;;;;2.38;1.40;;;;;;;9.37;33.86;100497.59;4793407;30;20062;-78